ADDS METAR Data INFO
IDs: Format: Raw Decoded Include TAF

Data at: 1747 UTC 21 Oct 2017

KSVC 211735Z AUTO 30019G25KT 10SM CLR 19/01 A3010 RMK AO2 T01900008
KSVC 211715Z AUTO 29024G29KT 10SM CLR 18/01 A3008 RMK AO2 T01810006
KSVC 211655Z AUTO 29023G28KT 10SM CLR 18/01 A3008 RMK AO2 T01770011
KSVC 211635Z AUTO 30024G30KT 10SM CLR 18/01 A3008 RMK AO2 T01770012
KSVC 211615Z AUTO 30018G24KT 10SM CLR 17/03 A3008 RMK AO2 T01700025
KSVC 211555Z AUTO 30017G25KT 10SM CLR 16/04 A3008 RMK AO2 T01630039
KSVC 211535Z AUTO 30020G23KT 10SM CLR 16/04 A3007 RMK AO2 T01570043
KSVC 211515Z AUTO 30016G22KT 10SM CLR 15/04 A3007 RMK AO2 T01500041
KSVC 211455Z AUTO 31015G18KT 10SM CLR 15/04 A3005 RMK AO2 T01460041
KSVC 211435Z AUTO 31013G17KT 10SM CLR 15/04 A3004 RMK AO2 T01450042
KSVC 211415Z AUTO 29011KT 10SM CLR 14/04 A3004 RMK AO2 T01370041
KSVC 211355Z AUTO 28012G16KT 10SM CLR 13/04 A3002 RMK AO2 T01270041
KSVC 211335Z AUTO 27008KT 10SM CLR 13/04 A3002 RMK AO2 T01260042
KSVC 211315Z AUTO 26005KT 10SM CLR 12/04 A3002 RMK AO2 T01210040
KSVC 211255Z AUTO 25005KT 10SM CLR 13/04 A3002 RMK AO2 T01270043
KSVC 211235Z AUTO 28007KT 10SM CLR 12/04 A3002 RMK AO2 T01200038
KSVC 211215Z AUTO 27005KT 10SM SCT041 13/04 A3001 RMK AO2 T01270037
KSVC 211155Z AUTO 26003KT 10SM SCT041 13/04 A3000 RMK AO2 T01270035 10177 20110
KSVC 211135Z AUTO 00000KT 10SM SCT043 SCT120 13/03 A3000 RMK AO2 T01320033
KSVC 211115Z AUTO 00000KT 10SM OVC043 13/03 A2998 RMK AO2 T01330033
KSVC 211055Z AUTO 00000KT 10SM BKN043 BKN120 12/03 A2998 RMK AO2 T01210031
KSVC 211035Z AUTO 33009KT 10SM SCT049 SCT120 12/03 A2998 RMK AO2 T01190028
KSVC 211015Z AUTO 35003KT 10SM BKN049 BKN110 12/03 A2997 RMK AO2 T01180028
KSVC 210955Z AUTO 35004KT 10SM SCT049 BKN110 11/03 A2996 RMK AO2 T01120025
KSVC 210935Z AUTO 34005KT 10SM SCT049 SCT120 12/03 A2996 RMK AO2 T01230026
KSVC 210915Z AUTO 31003KT 10SM CLR 14/03 A2997 RMK AO2 T01390028
KSVC 210855Z AUTO 30005KT 10SM CLR 14/03 A2996 RMK AO2 T01350027
KSVC 210835Z AUTO 28007KT 10SM CLR 13/03 A2996 RMK AO2 T01330026
KSVC 210815Z AUTO 28008KT 10SM CLR 15/03 A2997 RMK AO2 T01500028
KSVC 210755Z AUTO 26010KT 10SM SCT065 17/03 A2997 RMK AO2 T01650032
KSVC 210735Z AUTO 27012KT 10SM SCT065 17/04 A2998 RMK AO2 T01720036
KSVC 210715Z AUTO 26013G21KT 10SM SCT065 SCT120 18/04 A2998 RMK AO2 T01760040
KSVC 210655Z AUTO 26015G22KT 10SM SCT065 18/04 A2997 RMK AO2 T01760037 402530057
KSVC 210635Z AUTO 26016G21KT 10SM CLR 18/03 A2997 RMK AO2 T01750033
KSVC 210615Z AUTO 26014G18KT 10SM CLR 17/02 A2996 RMK AO2 T01710024
KSVC 210555Z AUTO 26014KT 10SM CLR 17/02 A2995 RMK AO2 T01720020 10234 20142
KSVC 210535Z AUTO 27012KT 10SM CLR 17/01 A2996 RMK AO2 T01670013
KSVC 210515Z AUTO 28015KT 10SM CLR 17/01 A2996 RMK AO2 T01700010
KSVC 210455Z AUTO 28016KT 10SM SCT110 17/01 A2996 RMK AO2 T01650006
KSVC 210435Z AUTO 29009KT 10SM SCT120 16/00 A2996 RMK AO2 T01610000
KSVC 210415Z AUTO 28011KT 10SM SCT120 17/00 A2996 RMK AO2 T01710000
KSVC 210355Z AUTO 27009KT 10SM BKN110 19/00 A2995 RMK AO2 T01860000
KSVC 210335Z AUTO 28012KT 10SM BKN110 18/00 A2995 RMK AO2 T01760000
KSVC 210315Z AUTO 27009KT 10SM OVC110 17/00 A2994 RMK AO2 T01700000
KSVC 210255Z AUTO 27007KT 10SM OVC110 17/00 A2994 RMK AO2 T01650002
KSVC 210235Z AUTO 28006KT 10SM OVC110 15/00 A2995 RMK AO2 T01540000
KSVC 210215Z AUTO 28006KT 10SM OVC110 17/00 A2995 RMK AO2 T01740000
KSVC 210155Z AUTO 27007KT 10SM SCT110 19/00 A2994 RMK AO2 T01920000
KSVC 210135Z AUTO 27006KT 10SM CLR 19/00 A2994 RMK AO2 T01890000
KSVC 210115Z AUTO 28008KT 10SM CLR 20/00 A2993 RMK AO2 T02000000
KSVC 210055Z AUTO 26009KT 10SM CLR 21/00 A2993 RMK AO2 T02130000
KSVC 210035Z AUTO 26008KT 10SM CLR 22/00 A2993 RMK AO2 T02180002
KSVC 210015Z AUTO 26009KT 10SM CLR 23/00 A2993 RMK AO2 T02290002
KSVC 202355Z AUTO 27011G17KT 10SM SCT100 24/01 A2993 RMK AO2 T02350005 10253 20199
KSVC 202335Z AUTO 26012G21KT 10SM BKN100 24/01 A2994 RMK AO2 T02410005
KSVC 202315Z AUTO 26014G22KT 10SM SCT100 BKN120 24/01 A2994 RMK AO2 T02420007
KSVC 202255Z AUTO 25011G24KT 10SM BKN110 25/01 A2994 RMK AO2 T02450011
KSVC 202235Z AUTO 25016G24KT 10SM OVC110 25/01 A2995 RMK AO2 T02470006
KSVC 202215Z AUTO 27015G21KT 10SM OVC110 25/01 A2995 RMK AO2 T02470006
KSVC 202155Z AUTO 26018G23KT 10SM OVC110 25/00 A2996 RMK AO2 T02510000
KSVC 202135Z AUTO 26012G19KT 10SM OVC110 25/00 A2996 RMK AO2 T02521004
KSVC 202115Z AUTO 27015G19KT 10SM BKN110 24/00 A2996 RMK AO2 T02410001
KSVC 202055Z AUTO 28015G19KT 10SM SCT120 24/00 A2997 RMK AO2 T02440001
KSVC 202035Z AUTO 28014G22KT 10SM SCT120 25/00 A2997 RMK AO2 T02451001
KSVC 202015Z AUTO 25010G20KT 10SM BKN110 24/01 A2999 RMK AO2 T02370007
KSVC 201955Z AUTO 26012G20KT 10SM BKN110 24/00 A3000 RMK AO2 T02380002
KSVC 201935Z AUTO 26012G23KT 10SM OVC110 24/00 A3002 RMK AO2 T02360000
KSVC 201915Z AUTO 24015G21KT 10SM OVC110 23/00 A3002 RMK AO2 T02340003
KSVC 201855Z AUTO 24012G19KT 10SM BKN110 23/00 A3003 RMK AO2 T02340000
KSVC 201835Z AUTO 26010G18KT 10SM CLR 24/00 A3004 RMK AO2 T02350000
KSVC 201815Z AUTO 20007KT 10SM SCT120 22/06 A3006 RMK AO2 T02180061
KSVC 201755Z AUTO 14004KT 10SM 20/07 A3007 RMK AO2 T02030070 10203 20057
KSVC 201715Z AUTO 18006KT 10SM CLR 19/07 A3008 RMK AO2 T01910071
KSVC 201655Z AUTO 00000KT 10SM CLR 18/08 A3008 RMK AO2 T01780075
KSVC 201635Z AUTO 00000KT 10SM CLR 17/07 A3008 RMK AO2 T01670073
KSVC 201615Z AUTO 00000KT 10SM CLR 16/08 A3009 RMK AO2 T01620076
KSVC 201555Z AUTO 00000KT 10SM SCT110 16/08 A3009 RMK AO2 T01560077
KSVC 201535Z AUTO 00000KT 10SM CLR 15/08 A3009 RMK AO2 T01460080
KSVC 201515Z AUTO 00000KT 10SM CLR 14/08 A3008 RMK AO2 T01430080
KSVC 201455Z AUTO 00000KT 10SM CLR 14/08 A3008 RMK AO2 T01390084
KSVC 201435Z AUTO 00000KT 10SM CLR 12/08 A3008 RMK AO2 T01200078
KSVC 201415Z AUTO 00000KT 10SM CLR 09/07 A3008 RMK AO2 T00900066
KSVC 201355Z AUTO 34003KT 10SM CLR 07/05 A3007 RMK AO2 T00670052
KSVC 201335Z AUTO 36006KT 10SM SCT080 07/05 A3007 RMK AO2 T00650050
KSVC 201315Z AUTO 35008KT 10SM CLR 06/05 A3008 RMK AO2 T00620046
KSVC 201255Z AUTO 36008KT 10SM CLR 06/05 A3008 RMK AO2 T00610046
KSVC 201235Z AUTO 36007KT 10SM CLR 06/05 A3008 RMK AO2 T00600045
KSVC 201215Z AUTO 36006KT 10SM CLR 07/05 A3008 RMK AO2 T00660050
KSVC 201155Z AUTO 36006KT 10SM CLR 06/04 A3008 RMK AO2 T00600044 10110 20058
KSVC 201135Z AUTO 36005KT 10SM CLR 07/05 A3008 RMK AO2 T00650045
KSVC 201115Z AUTO 36004KT 10SM CLR 06/04 A3008 RMK AO2 T00620042
KSVC 201055Z AUTO 00000KT 10SM CLR 06/04 A3008 RMK AO2 T00620042
KSVC 201035Z AUTO 00000KT 10SM CLR 06/04 A3008 RMK AO2 T00620041
KSVC 201015Z AUTO 36003KT 10SM CLR 06/04 A3008 RMK AO2 T00620041
KSVC 200955Z AUTO 36003KT 10SM CLR 06/04 A3009 RMK AO2 T00610040
KSVC 200935Z AUTO 00000KT 10SM CLR 07/04 A3009 RMK AO2 T00650042
KSVC 200915Z AUTO 00000KT 10SM CLR 07/04 A3009 RMK AO2 T00700044
KSVC 200855Z AUTO 00000KT 10SM CLR 07/04 A3009 RMK AO2 T00690042
KSVC 200835Z AUTO 33003KT 10SM CLR 07/05 A3009 RMK AO2 T00660045
KSVC 200815Z AUTO 34005KT 10SM SCT120 07/05 A3009 RMK AO2 T00670046
KSVC 200755Z AUTO 34004KT 10SM CLR 07/05 A3009 RMK AO2 T00740049
KSVC 200735Z AUTO 34005KT 10SM SCT100 09/05 A3008 RMK AO2 T00880053
KSVC 200715Z AUTO 34006KT 10SM BKN100 09/05 A3008 RMK AO2 T00890052
KSVC 200655Z AUTO 34006KT 10SM BKN110 09/05 A3009 RMK AO2 T00900054 402720090
KSVC 200635Z AUTO 34006KT 10SM BKN110 09/06 A3009 RMK AO2 T00940058
KSVC 200615Z AUTO 30004KT 10SM OVC110 10/06 A3009 RMK AO2 T00960057
KSVC 200555Z AUTO 29004KT 10SM BKN110 11/06 A3009 RMK AO2 T01050062 10224 20105